createdAt,value
2018-11-25T00:00:08.162Z,15.95
2018-11-25T00:02:35.850Z,16.50
2018-11-25T00:05:03.639Z,16.02
2018-11-25T00:07:34.849Z,18.37
2018-11-25T00:09:59.137Z,17.10
2018-11-25T00:12:26.868Z,17.67
2018-11-25T00:14:54.591Z,17.75
2018-11-25T00:17:22.284Z,18.70
2018-11-25T00:19:49.969Z,18.25
2018-11-25T00:22:17.657Z,19.20
2018-11-25T00:24:45.386Z,18.00
2018-11-25T00:27:13.060Z,18.10
2018-11-25T00:29:40.801Z,17.15
2018-11-25T00:32:08.547Z,18.32
2018-11-25T00:34:36.307Z,19.07
2018-11-25T00:37:04.266Z,17.30
2018-11-25T00:39:32.007Z,16.82
2018-11-25T00:41:59.746Z,16.93
2018-11-25T00:44:27.467Z,16.12
2018-11-25T00:46:55.194Z,16.57
2018-11-25T00:49:22.911Z,17.20
2018-11-25T00:51:50.633Z,16.75
2018-11-25T00:54:18.367Z,16.45
2018-11-25T00:56:46.107Z,17.95
2018-11-25T00:59:13.815Z,17.45
2018-11-25T01:01:41.522Z,17.05
2018-11-25T01:04:09.254Z,17.42
2018-11-25T01:06:36.986Z,16.32
2018-11-25T01:09:07.480Z,16.42
2018-11-25T01:11:35.354Z,14.60
2018-11-25T01:14:03.150Z,13.08
2018-11-25T01:16:30.890Z,12.75
2018-11-25T01:18:58.619Z,13.50
2018-11-25T01:21:26.366Z,14.70
2018-11-25T01:23:54.086Z,16.60
2018-11-25T01:26:21.814Z,17.82
2018-11-25T01:28:49.534Z,17.75
2018-11-25T01:31:17.277Z,16.77
2018-11-25T01:33:44.961Z,17.82
2018-11-25T01:36:12.676Z,17.27
2018-11-25T01:38:40.391Z,17.20
2018-11-25T01:41:08.095Z,16.42
2018-11-25T01:43:35.796Z,17.15
2018-11-25T01:46:03.539Z,17.45
2018-11-25T01:48:31.243Z,18.90
2018-11-25T01:50:58.941Z,19.48
2018-11-25T01:53:26.613Z,18.30
2018-11-25T01:55:54.335Z,17.50
2018-11-25T01:58:22.061Z,16.90
2018-11-25T02:00:49.779Z,15.93
2018-11-25T02:03:17.470Z,16.57
2018-11-25T02:05:45.193Z,15.95
2018-11-25T02:08:12.888Z,17.12
2018-11-25T02:10:40.570Z,15.38
2018-11-25T02:13:08.279Z,15.90
2018-11-25T02:15:35.964Z,16.10
2018-11-25T02:18:03.727Z,14.90
2018-11-25T02:20:31.467Z,14.73
2018-11-25T02:22:59.130Z,16.17
2018-11-25T02:25:26.852Z,16.15
2018-11-25T02:27:54.522Z,15.88
2018-11-25T02:30:22.198Z,14.95
2018-11-25T02:32:49.936Z,13.43
2018-11-25T02:35:17.843Z,12.88
2018-11-25T02:37:45.622Z,12.00
2018-11-25T02:40:15.153Z,13.10
2018-11-25T02:42:42.889Z,13.72
2018-11-25T02:45:16.422Z,12.82
2018-11-25T02:47:44.214Z,12.80
2018-11-25T02:50:28.400Z,11.95
2018-11-25T02:52:57.266Z,11.70
2018-11-25T02:55:25.744Z,11.78
2018-11-25T02:57:53.511Z,12.60
2018-11-25T03:00:21.259Z,12.25
2018-11-25T03:02:49.062Z,13.25
2018-11-25T03:05:16.814Z,13.40
2018-11-25T03:07:44.504Z,12.70
2018-11-25T03:10:12.296Z,12.58
2018-11-25T03:12:40.102Z,11.30
2018-11-25T03:15:12.142Z,11.90
2018-11-25T03:17:39.823Z,13.20
2018-11-25T03:20:10.066Z,12.40
2018-11-25T03:22:37.900Z,12.50
2018-11-25T03:25:08.294Z,11.45
2018-11-25T03:27:36.010Z,12.30
2018-11-25T03:30:04.798Z,11.88
2018-11-25T03:32:32.462Z,12.37
2018-11-25T03:35:00.185Z,11.57
2018-11-25T03:37:27.868Z,11.22
2018-11-25T03:39:55.524Z,10.65
2018-11-25T03:42:23.282Z,12.13
2018-11-25T03:44:50.985Z,12.40
2018-11-25T03:47:18.673Z,10.70
2018-11-25T03:49:46.403Z,10.18
2018-11-25T03:52:14.144Z,11.10
2018-11-25T03:54:41.841Z,11.40
2018-11-25T03:57:09.569Z,11.22
2018-11-25T03:59:37.232Z,11.22
2018-11-25T04:02:05.230Z,11.38
2018-11-25T04:04:32.963Z,13.68
2018-11-25T04:07:00.668Z,11.78
2018-11-25T04:09:28.473Z,11.90
2018-11-25T04:11:56.241Z,12.50
2018-11-25T04:14:23.993Z,11.97
2018-11-25T04:16:51.701Z,12.58
2018-11-25T04:19:19.437Z,12.10
2018-11-25T04:21:47.112Z,12.05
2018-11-25T04:24:14.814Z,10.60
2018-11-25T04:26:42.512Z,10.20
2018-11-25T04:29:10.209Z,10.65
2018-11-25T04:31:37.912Z,10.50
2018-11-25T04:34:05.665Z,9.60
2018-11-25T04:36:33.387Z,9.05
2018-11-25T04:39:01.054Z,9.88
2018-11-25T04:41:28.799Z,10.05
2018-11-25T04:43:56.554Z,9.90
2018-11-25T04:46:24.273Z,10.10
2018-11-25T04:48:51.982Z,10.03
2018-11-25T04:51:19.680Z,9.83
2018-11-25T04:53:47.369Z,10.00
2018-11-25T04:56:15.029Z,9.85
2018-11-25T04:58:42.735Z,11.05
2018-11-25T05:01:10.442Z,10.28
2018-11-25T05:03:38.116Z,10.95
2018-11-25T05:06:05.827Z,11.73
2018-11-25T05:08:33.541Z,10.70
2018-11-25T05:11:01.295Z,10.25
2018-11-25T05:13:29.009Z,10.20
2018-11-25T05:15:56.742Z,10.28
2018-11-25T05:18:24.472Z,10.72
2018-11-25T05:20:52.191Z,10.23
2018-11-25T05:23:19.892Z,10.48
2018-11-25T05:25:47.606Z,12.18
2018-11-25T05:28:15.292Z,9.75
2018-11-25T05:30:43.029Z,9.58
2018-11-25T05:33:10.695Z,9.73
2018-11-25T05:35:38.434Z,10.55
2018-11-25T05:38:06.124Z,10.58
2018-11-25T05:40:33.798Z,10.40
2018-11-25T05:43:01.494Z,10.58
2018-11-25T05:45:29.162Z,9.98
2018-11-25T05:47:56.887Z,9.15
2018-11-25T05:50:25.057Z,10.05
2018-11-25T05:52:52.334Z,10.15
2018-11-25T05:55:20.085Z,9.75
2018-11-25T05:57:47.776Z,9.15
2018-11-25T06:00:19.505Z,9.10
2018-11-25T06:02:47.201Z,9.20
2018-11-25T06:05:14.899Z,10.10
2018-11-25T06:07:42.594Z,10.30
2018-11-25T06:10:12.134Z,10.05
2018-11-25T06:12:39.875Z,11.20
2018-11-25T06:15:09.326Z,10.95
2018-11-25T06:17:37.107Z,13.55
2018-11-25T06:20:06.913Z,11.15
2018-11-25T06:22:34.629Z,12.35
2018-11-25T06:25:02.338Z,10.85
2018-11-25T06:27:30.516Z,11.25
2018-11-25T06:29:57.790Z,10.50
2018-11-25T06:32:25.458Z,9.53
2018-11-25T06:34:53.139Z,9.28
2018-11-25T06:37:20.876Z,9.23
2018-11-25T06:39:48.562Z,9.08
2018-11-25T06:42:16.229Z,9.55
2018-11-25T06:44:44.034Z,9.68
2018-11-25T06:47:11.752Z,9.40
2018-11-25T06:49:39.471Z,9.38
2018-11-25T06:52:07.215Z,9.03
2018-11-25T06:54:34.923Z,8.75
2018-11-25T06:57:02.600Z,9.40
2018-11-25T06:59:30.303Z,10.03
2018-11-25T07:01:58.005Z,10.20
2018-11-25T07:04:25.689Z,11.22
2018-11-25T07:06:53.442Z,9.05
2018-11-25T07:09:21.157Z,9.58
2018-11-25T07:11:48.878Z,8.88
2018-11-25T07:14:16.598Z,9.05
2018-11-25T07:16:44.344Z,9.30
2018-11-25T07:19:12.111Z,9.70
2018-11-25T07:21:39.806Z,8.03
2018-11-25T07:24:07.651Z,8.70
2018-11-25T07:26:35.382Z,7.87
2018-11-25T07:29:03.158Z,7.90
2018-11-25T07:31:30.882Z,7.92
2018-11-25T07:33:58.561Z,7.78
2018-11-25T07:36:26.269Z,8.63
2018-11-25T07:38:54.133Z,8.05
2018-11-25T07:41:21.818Z,8.38
2018-11-25T07:43:49.502Z,7.58
2018-11-25T07:46:17.226Z,8.18
2018-11-25T07:48:44.934Z,7.85
2018-11-25T07:51:12.711Z,8.00
2018-11-25T07:53:40.406Z,7.62
2018-11-25T07:56:08.131Z,8.95
2018-11-25T07:58:35.873Z,9.25
2018-11-25T08:01:03.623Z,9.18
2018-11-25T08:03:31.333Z,9.10
2018-11-25T08:05:59.043Z,8.03
2018-11-25T08:08:26.771Z,8.70
2018-11-25T08:10:54.510Z,8.60
2018-11-25T08:13:22.226Z,9.98
2018-11-25T08:15:49.964Z,10.95
2018-11-25T08:18:17.716Z,10.03
2018-11-25T08:20:45.551Z,8.90
2018-11-25T08:23:13.655Z,10.20
2018-11-25T08:25:41.114Z,9.73
2018-11-25T08:28:08.861Z,9.43
2018-11-25T08:30:36.688Z,9.98
2018-11-25T08:33:04.646Z,10.28
2018-11-25T08:35:32.534Z,10.25
2018-11-25T08:38:00.257Z,9.90
2018-11-25T08:40:28.049Z,9.58
2018-11-25T08:42:55.873Z,8.83
2018-11-25T08:45:23.618Z,8.00
2018-11-25T08:47:51.784Z,9.10
2018-11-25T08:50:19.826Z,10.35
2018-11-25T08:52:51.456Z,9.20
2018-11-25T08:55:20.214Z,9.20
2018-11-25T08:57:47.970Z,10.10
2018-11-25T09:00:16.696Z,9.10
2018-11-25T09:02:44.563Z,10.15
2018-11-25T09:05:13.270Z,9.50
2018-11-25T09:07:41.141Z,8.60
2018-11-25T09:10:17.843Z,8.70
2018-11-25T09:12:55.198Z,9.60
2018-11-25T09:15:18.516Z,10.28
2018-11-25T09:17:46.208Z,12.33
2018-11-25T09:20:15.156Z,12.75
2018-11-25T09:22:42.945Z,14.43
2018-11-25T09:25:14.993Z,15.00
2018-11-25T09:27:42.705Z,15.83
2018-11-25T09:30:16.678Z,16.80
2018-11-25T09:32:44.525Z,17.27
2018-11-25T09:35:12.318Z,19.30
2018-11-25T09:37:40.110Z,21.77
2018-11-25T09:40:12.247Z,20.48
2018-11-25T09:42:39.974Z,18.70
2018-11-25T09:45:10.790Z,18.15
2018-11-25T09:47:38.482Z,16.52
2018-11-25T09:50:09.419Z,16.17
2018-11-25T09:52:37.206Z,15.95
2018-11-25T09:55:06.739Z,18.55
2018-11-25T09:57:34.417Z,16.65
2018-11-25T10:00:02.156Z,17.73
2018-11-25T10:02:29.879Z,17.70
2018-11-25T10:04:57.564Z,17.73
2018-11-25T10:07:25.289Z,19.02
2018-11-25T10:09:52.966Z,15.88
2018-11-25T10:12:20.674Z,16.70
2018-11-25T10:14:48.394Z,16.20
2018-11-25T10:17:16.147Z,17.48
2018-11-25T10:19:43.903Z,18.62
2018-11-25T10:22:11.610Z,18.52
2018-11-25T10:24:39.298Z,17.05
2018-11-25T10:27:07.022Z,17.55
2018-11-25T10:29:34.695Z,26.35
2018-11-25T10:32:04.945Z,18.67
2018-11-25T10:34:33.142Z,17.70
2018-11-25T10:37:01.505Z,18.20
2018-11-25T10:39:29.165Z,16.12
2018-11-25T10:41:56.873Z,19.48
2018-11-25T10:44:24.579Z,17.50
2018-11-25T10:46:52.265Z,17.87
2018-11-25T10:49:19.991Z,16.10
2018-11-25T10:51:47.670Z,18.00
2018-11-25T10:54:15.363Z,16.73
2018-11-25T10:56:43.067Z,17.07
2018-11-25T10:59:10.788Z,16.57
2018-11-25T11:01:51.447Z,17.73
2018-11-25T11:04:24.784Z,17.12
2018-11-25T11:06:58.018Z,17.12
2018-11-25T11:09:25.699Z,18.10
2018-11-25T11:11:53.401Z,18.75
2018-11-25T11:14:21.126Z,19.42
2018-11-25T11:16:53.812Z,18.82
2018-11-25T11:19:16.661Z,18.85
2018-11-25T11:21:44.412Z,19.67
2018-11-25T11:24:12.091Z,18.05
2018-11-25T11:26:39.831Z,24.27
2018-11-25T11:29:07.585Z,25.32
2018-11-25T11:31:35.276Z,19.60
2018-11-25T11:34:02.975Z,19.90
2018-11-25T11:36:30.669Z,21.35
2018-11-25T11:38:58.513Z,19.45
2018-11-25T11:41:28.818Z,18.82
2018-11-25T11:43:56.737Z,19.50
2018-11-25T11:46:24.472Z,21.65
2018-11-25T11:48:52.232Z,19.35
2018-11-25T11:51:25.592Z,22.13
2018-11-25T11:53:48.030Z,19.90
2018-11-25T11:56:15.759Z,18.95
2018-11-25T11:58:43.435Z,20.35
2018-11-25T12:01:11.126Z,19.57
2018-11-25T12:03:38.850Z,19.70
2018-11-25T12:06:06.542Z,19.62
2018-11-25T12:08:34.262Z,27.70
2018-11-25T12:11:02.729Z,18.70
2018-11-25T12:13:30.510Z,27.37
2018-11-25T12:15:58.211Z,20.57
2018-11-25T12:18:26.523Z,21.25
2018-11-25T12:20:54.271Z,20.97
2018-11-25T12:23:22.029Z,25.17
2018-11-25T12:25:49.765Z,21.55
2018-11-25T12:28:17.537Z,20.68
2018-11-25T12:30:45.274Z,23.98
2018-11-25T12:33:12.962Z,22.60
2018-11-25T12:35:40.678Z,22.82
2018-11-25T12:38:08.514Z,24.65
2018-11-25T12:40:36.249Z,24.25
2018-11-25T12:43:03.970Z,27.15
2018-11-25T12:45:31.775Z,25.05
2018-11-25T12:47:59.514Z,23.50
2018-11-25T12:50:27.236Z,23.30
2018-11-25T12:52:55.364Z,28.50
2018-11-25T12:55:25.176Z,25.20
2018-11-25T12:57:53.180Z,30.05
2018-11-25T13:00:27.445Z,31.70
2018-11-25T13:02:55.181Z,29.37
2018-11-25T13:05:22.903Z,32.10
2018-11-25T13:07:50.688Z,33.45
2018-11-25T13:10:18.456Z,31.02
2018-11-25T13:12:46.149Z,23.90
2018-11-25T13:15:13.899Z,28.87
2018-11-25T13:17:41.614Z,28.50
2018-11-25T13:20:11.290Z,30.37
2018-11-25T13:22:39.204Z,26.40
2018-11-25T13:25:08.843Z,31.77
2018-11-25T13:27:36.594Z,28.98
2018-11-25T13:30:21.127Z,35.25
2018-11-25T13:32:49.941Z,31.52
2018-11-25T13:35:17.682Z,34.13
2018-11-25T13:37:45.388Z,29.15
2018-11-25T13:40:14.152Z,25.57
2018-11-25T13:42:41.899Z,25.23
2018-11-25T13:45:09.945Z,25.52
2018-11-25T13:47:37.795Z,33.75
2018-11-25T13:50:07.057Z,37.55
2018-11-25T13:52:34.778Z,28.23
2018-11-25T13:55:02.515Z,30.60
2018-11-25T13:57:30.197Z,29.90
2018-11-25T13:59:57.937Z,29.23
2018-11-25T14:02:25.687Z,34.85
2018-11-25T14:04:53.446Z,31.62
2018-11-25T14:07:21.417Z,30.62
2018-11-25T14:09:49.736Z,31.68
2018-11-25T14:12:17.440Z,32.70
2018-11-25T14:14:45.179Z,29.90
2018-11-25T14:17:12.943Z,35.10
2018-11-25T14:19:40.648Z,32.58
2018-11-25T14:22:08.378Z,32.60
2018-11-25T14:24:36.071Z,32.80
2018-11-25T14:27:05.296Z,31.73
2018-11-25T14:29:33.021Z,32.75
2018-11-25T14:32:00.746Z,30.08
2018-11-25T14:34:28.503Z,27.77
2018-11-25T14:36:56.242Z,29.67
2018-11-25T14:39:23.988Z,30.27
2018-11-25T14:41:51.708Z,29.60
2018-11-25T14:44:19.442Z,29.95
2018-11-25T14:46:47.113Z,30.23
2018-11-25T14:49:14.841Z,29.60
2018-11-25T14:51:42.582Z,30.77
2018-11-25T14:54:10.261Z,31.07
2018-11-25T14:56:37.994Z,28.00
2018-11-25T14:59:05.700Z,27.40
2018-11-25T15:01:33.420Z,21.60
2018-11-25T15:04:01.112Z,20.27
2018-11-25T15:06:29.550Z,21.25
2018-11-25T15:08:56.584Z,19.42
2018-11-25T15:11:24.335Z,18.27
2018-11-25T15:13:52.117Z,16.77
2018-11-25T15:16:19.821Z,16.37
2018-11-25T15:18:47.549Z,17.48
2018-11-25T15:21:15.347Z,15.55
2018-11-25T15:23:43.100Z,17.85
2018-11-25T15:26:14.032Z,16.05
2018-11-25T15:28:41.797Z,17.80
2018-11-25T15:31:09.482Z,18.35
2018-11-25T15:33:37.204Z,16.45
2018-11-25T15:36:05.432Z,18.00
2018-11-25T15:38:33.171Z,18.92
2018-11-25T15:41:00.940Z,18.75
2018-11-25T15:46:31.563Z,17.30
2018-11-25T15:48:59.235Z,19.05
2018-11-25T15:51:26.967Z,18.10
2018-11-25T15:53:54.696Z,19.35
2018-11-25T15:56:22.376Z,17.37
2018-11-25T15:58:50.135Z,16.55
2018-11-25T16:01:17.841Z,16.25
2018-11-25T16:03:45.721Z,17.20
2018-11-25T16:06:18.239Z,18.25
2018-11-25T16:08:46.078Z,15.40
2018-11-25T16:11:13.843Z,18.40
2018-11-25T16:13:41.584Z,17.48
2018-11-25T16:16:09.343Z,18.17
2018-11-25T16:18:37.059Z,16.90
2018-11-25T16:21:04.948Z,17.12
2018-11-25T16:23:32.687Z,16.85
2018-11-25T16:26:05.179Z,19.77
2018-11-25T16:28:35.454Z,16.67
2018-11-25T16:31:03.190Z,17.70
2018-11-25T16:33:30.962Z,17.25
2018-11-25T16:35:58.627Z,19.20
2018-11-25T16:38:26.470Z,17.82
2018-11-25T16:40:54.210Z,17.32
2018-11-25T16:43:21.910Z,17.77
2018-11-25T16:45:49.573Z,22.22
2018-11-25T16:48:17.261Z,22.45
2018-11-25T16:50:44.952Z,20.80
2018-11-25T16:53:12.656Z,17.65
2018-11-25T16:55:40.542Z,20.20
2018-11-25T16:58:08.273Z,16.80
2018-11-25T17:00:36.004Z,15.40
2018-11-25T17:03:03.819Z,20.60
2018-11-25T17:05:33.314Z,16.77
2018-11-25T17:08:10.782Z,16.80
2018-11-25T17:10:38.501Z,14.30
2018-11-25T17:13:06.743Z,15.83
2018-11-25T17:15:34.472Z,16.62
2018-11-25T17:18:02.181Z,15.50
2018-11-25T17:20:29.919Z,14.70
2018-11-25T17:22:57.621Z,16.15
2018-11-25T17:25:25.336Z,14.98
2018-11-25T17:27:53.070Z,16.45
2018-11-25T17:30:20.906Z,15.03
2018-11-25T17:32:48.786Z,14.50
2018-11-25T17:35:25.533Z,19.23
2018-11-25T17:37:53.253Z,17.37
2018-11-25T17:40:20.985Z,14.65
2018-11-25T17:42:48.973Z,16.55
2018-11-25T17:45:16.715Z,14.95
2018-11-25T17:47:44.542Z,16.37
2018-11-25T17:50:15.925Z,13.83
2018-11-25T17:52:43.770Z,13.60
2018-11-25T17:55:12.556Z,12.70
2018-11-25T17:57:40.455Z,14.65
2018-11-25T18:00:31.968Z,13.98
2018-11-25T18:02:59.742Z,12.95
2018-11-25T18:05:27.544Z,13.58
2018-11-25T18:07:55.436Z,11.40
2018-11-25T18:10:23.300Z,13.22
2018-11-25T18:12:51.010Z,13.38
2018-11-25T18:15:19.887Z,14.00
2018-11-25T18:19:00.611Z,14.28
2018-11-25T18:21:28.345Z,14.20
2018-11-25T18:23:56.088Z,14.13
2018-11-25T18:26:23.991Z,17.20
2018-11-25T18:28:51.908Z,15.63
2018-11-25T18:31:19.709Z,22.07
2018-11-25T18:33:47.693Z,16.75
2018-11-25T18:36:15.564Z,18.65
2018-11-25T18:38:43.373Z,20.75
2018-11-25T18:41:11.467Z,16.50
2018-11-25T18:43:39.246Z,14.93
2018-11-25T18:46:07.199Z,27.90
2018-11-25T18:48:36.762Z,21.55
2018-11-25T18:51:04.766Z,18.87
2018-11-25T18:53:32.639Z,19.95
2018-11-25T18:56:00.493Z,27.25
2018-11-25T18:58:28.432Z,19.48
2018-11-25T19:01:05.358Z,19.95
2018-11-25T19:03:33.088Z,21.12
2018-11-25T19:06:00.919Z,18.32
2018-11-25T19:08:28.792Z,18.67
2018-11-25T19:10:56.520Z,18.65
2018-11-25T19:13:24.235Z,19.35
2018-11-25T19:15:52.030Z,18.95
2018-11-25T19:18:19.880Z,19.07
2018-11-25T19:20:47.774Z,15.95
2018-11-25T19:23:16.256Z,16.10
2018-11-25T19:25:44.000Z,18.35
2018-11-25T19:28:11.730Z,16.25
2018-11-25T19:30:39.501Z,14.75
2018-11-25T19:33:08.830Z,16.32
2018-11-25T19:35:38.022Z,14.75
2018-11-25T19:38:04.565Z,15.80
2018-11-25T19:40:32.327Z,15.05
2018-11-25T19:43:00.088Z,13.55
2018-11-25T19:45:27.949Z,14.80
2018-11-25T19:47:56.478Z,15.93
2018-11-25T19:50:28.514Z,14.73
2018-11-25T19:52:57.146Z,16.40
2018-11-25T19:55:24.941Z,17.23
2018-11-25T19:57:52.641Z,14.60
2018-11-25T20:00:23.318Z,17.37
2018-11-25T20:02:51.042Z,17.17
2018-11-25T20:05:18.759Z,16.35
2018-11-25T20:07:46.519Z,17.20
2018-11-25T20:10:15.662Z,16.45
2018-11-25T20:12:44.983Z,18.32
2018-11-25T20:15:14.839Z,16.52
2018-11-25T20:17:42.935Z,17.15
2018-11-25T20:20:12.873Z,19.10
2018-11-25T20:22:40.599Z,18.30
2018-11-25T20:25:10.335Z,18.17
2018-11-25T20:27:44.081Z,19.30
2018-11-25T20:30:12.921Z,17.62
2018-11-25T20:32:46.332Z,18.15
2018-11-25T20:35:14.066Z,19.20
2018-11-25T20:37:47.532Z,18.87
2018-11-25T20:40:15.278Z,17.73
2018-11-25T20:42:42.990Z,17.00
2018-11-25T20:45:17.446Z,17.95
2018-11-25T20:47:45.577Z,16.62
2018-11-25T20:50:13.283Z,16.95
2018-11-25T20:52:46.511Z,21.10
2018-11-25T20:55:14.266Z,17.90
2018-11-25T20:57:42.001Z,17.87
2018-11-25T21:00:13.032Z,19.02
2018-11-25T21:02:40.791Z,17.90
2018-11-25T21:05:11.135Z,18.42
2018-11-25T21:07:38.912Z,18.82
2018-11-25T21:10:10.902Z,18.20
2018-11-25T21:12:38.677Z,16.80
2018-11-25T21:15:08.011Z,20.37
2018-11-25T21:17:35.747Z,17.77
2018-11-25T21:20:04.874Z,16.37
2018-11-25T21:22:32.611Z,16.25
2018-11-25T21:25:00.347Z,16.93
2018-11-25T21:27:28.062Z,15.88
2018-11-25T21:29:55.759Z,17.73
2018-11-25T21:32:23.468Z,17.67
2018-11-25T21:34:51.203Z,17.42
2018-11-25T21:37:18.876Z,17.50
2018-11-25T21:39:46.586Z,18.85
2018-11-25T21:42:14.330Z,17.23
2018-11-25T21:44:42.039Z,19.57
2018-11-25T21:47:09.759Z,19.42
2018-11-25T21:49:37.474Z,18.80
2018-11-25T21:52:05.442Z,19.05
2018-11-25T21:54:33.969Z,18.17
2018-11-25T21:57:01.707Z,17.55
2018-11-25T21:59:29.417Z,18.23
2018-11-25T22:01:57.125Z,19.10
2018-11-25T22:04:24.837Z,17.05
2018-11-25T22:06:52.505Z,19.57
2018-11-25T22:09:20.206Z,17.90
2018-11-25T22:11:47.867Z,18.80
2018-11-25T22:14:15.571Z,17.45
2018-11-25T22:16:43.322Z,16.52
2018-11-25T22:19:11.032Z,17.15
2018-11-25T22:21:38.750Z,17.80
2018-11-25T22:24:06.465Z,19.30
2018-11-25T22:26:34.239Z,18.07
2018-11-25T22:29:01.930Z,17.37
2018-11-25T22:31:29.630Z,18.05
2018-11-25T22:33:57.319Z,16.62
2018-11-25T22:36:25.050Z,16.80
2018-11-25T22:38:52.783Z,18.07
2018-11-25T22:41:20.486Z,15.98
2018-11-25T22:43:48.177Z,17.20
2018-11-25T22:46:15.859Z,17.10
2018-11-25T22:48:43.662Z,18.12
2018-11-25T22:51:11.353Z,16.40
2018-11-25T22:53:39.182Z,18.50
2018-11-25T22:56:06.960Z,17.90
2018-11-25T22:58:34.645Z,16.85
2018-11-25T23:01:02.326Z,16.30
2018-11-25T23:03:30.019Z,17.62
2018-11-25T23:07:07.486Z,15.60
2018-11-25T23:09:35.234Z,16.82
2018-11-25T23:12:02.985Z,17.65
2018-11-25T23:14:30.788Z,18.35
2018-11-25T23:16:58.549Z,17.45
2018-11-25T23:19:26.270Z,17.48
2018-11-25T23:21:53.989Z,16.87
2018-11-25T23:24:21.667Z,19.35
2018-11-25T23:26:49.411Z,18.70
2018-11-25T23:29:17.154Z,17.40
2018-11-25T23:31:44.926Z,17.67
2018-11-25T23:34:12.597Z,17.52
2018-11-25T23:36:40.310Z,15.60
2018-11-25T23:39:09.136Z,15.95
2018-11-25T23:41:37.540Z,17.90
2018-11-25T23:44:06.351Z,16.90
2018-11-25T23:46:34.075Z,17.20
2018-11-25T23:49:01.886Z,16.37
2018-11-25T23:51:36.190Z,17.23
2018-11-25T23:54:03.897Z,17.37
2018-11-25T23:56:31.666Z,17.30
2018-11-25T23:58:59.349Z,15.83
